sensor_id;sensor_type;location;lat;lon;timestamp;P1;durP1;ratioP1;P2;durP2;ratioP2
6356;SDS011;3211;53.452;-2.264;2023-04-29T00:02:34;27.27;;;17.50;;
6356;SDS011;3211;53.452;-2.264;2023-04-29T00:05:17;27.57;;;17.20;;
6356;SDS011;3211;53.452;-2.264;2023-04-29T00:08:00;22.10;;;17.70;;
6356;SDS011;3211;53.452;-2.264;2023-04-29T00:10:43;21.33;;;16.37;;
6356;SDS011;3211;53.452;-2.264;2023-04-29T00:13:25;22.23;;;16.60;;
6356;SDS011;3211;53.452;-2.264;2023-04-29T00:16:07;22.97;;;17.30;;
6356;SDS011;3211;53.452;-2.264;2023-04-29T00:18:52;20.40;;;17.30;;
6356;SDS011;3211;53.452;-2.264;2023-04-29T00:21:34;22.93;;;18.80;;
6356;SDS011;3211;53.452;-2.264;2023-04-29T00:24:16;26.93;;;17.53;;
6356;SDS011;3211;53.452;-2.264;2023-04-29T00:26:58;25.00;;;18.50;;
6356;SDS011;3211;53.452;-2.264;2023-04-29T00:29:40;23.00;;;17.27;;
6356;SDS011;3211;53.452;-2.264;2023-04-29T00:32:22;28.23;;;18.33;;
6356;SDS011;3211;53.452;-2.264;2023-04-29T00:35:06;23.67;;;17.50;;
6356;SDS011;3211;53.452;-2.264;2023-04-29T00:37:49;22.57;;;17.87;;
6356;SDS011;3211;53.452;-2.264;2023-04-29T00:40:33;24.97;;;17.80;;
6356;SDS011;3211;53.452;-2.264;2023-04-29T00:43:15;22.80;;;15.80;;
6356;SDS011;3211;53.452;-2.264;2023-04-29T00:45:57;24.73;;;17.27;;
6356;SDS011;3211;53.452;-2.264;2023-04-29T00:48:39;23.90;;;18.07;;
6356;SDS011;3211;53.452;-2.264;2023-04-29T00:51:23;23.00;;;17.97;;
6356;SDS011;3211;53.452;-2.264;2023-04-29T00:54:05;21.43;;;17.20;;
6356;SDS011;3211;53.452;-2.264;2023-04-29T00:56:49;23.13;;;18.00;;
6356;SDS011;3211;53.452;-2.264;2023-04-29T00:59:31;22.43;;;16.53;;
6356;SDS011;3211;53.452;-2.264;2023-04-29T01:02:13;22.77;;;17.30;;
6356;SDS011;3211;53.452;-2.264;2023-04-29T01:04:56;23.67;;;17.60;;
6356;SDS011;3211;53.452;-2.264;2023-04-29T01:07:42;22.97;;;17.07;;
6356;SDS011;3211;53.452;-2.264;2023-04-29T01:10:31;24.03;;;18.20;;
6356;SDS011;3211;53.452;-2.264;2023-04-29T01:13:26;21.50;;;17.00;;
6356;SDS011;3211;53.452;-2.264;2023-04-29T01:16:12;21.53;;;15.67;;
6356;SDS011;3211;53.452;-2.264;2023-04-29T01:19:03;25.23;;;17.20;;
6356;SDS011;3211;53.452;-2.264;2023-04-29T01:21:53;21.10;;;16.47;;
6356;SDS011;3211;53.452;-2.264;2023-04-29T01:24:37;19.80;;;15.73;;
6356;SDS011;3211;53.452;-2.264;2023-04-29T01:27:22;23.70;;;16.57;;
6356;SDS011;3211;53.452;-2.264;2023-04-29T01:30:12;26.90;;;16.70;;
6356;SDS011;3211;53.452;-2.264;2023-04-29T01:33:07;26.87;;;16.57;;
6356;SDS011;3211;53.452;-2.264;2023-04-29T01:35:58;18.30;;;15.13;;
6356;SDS011;3211;53.452;-2.264;2023-04-29T01:38:52;21.10;;;15.13;;
6356;SDS011;3211;53.452;-2.264;2023-04-29T01:41:43;21.60;;;16.43;;
6356;SDS011;3211;53.452;-2.264;2023-04-29T01:44:31;20.20;;;15.00;;
6356;SDS011;3211;53.452;-2.264;2023-04-29T01:47:14;23.17;;;15.60;;
6356;SDS011;3211;53.452;-2.264;2023-04-29T01:49:56;19.37;;;14.77;;
6356;SDS011;3211;53.452;-2.264;2023-04-29T01:52:38;20.87;;;15.83;;
6356;SDS011;3211;53.452;-2.264;2023-04-29T01:55:20;17.67;;;13.50;;
6356;SDS011;3211;53.452;-2.264;2023-04-29T01:58:04;17.50;;;14.40;;
6356;SDS011;3211;53.452;-2.264;2023-04-29T02:00:46;19.07;;;14.10;;
6356;SDS011;3211;53.452;-2.264;2023-04-29T02:03:28;16.80;;;12.90;;
6356;SDS011;3211;53.452;-2.264;2023-04-29T02:06:10;17.07;;;14.00;;
6356;SDS011;3211;53.452;-2.264;2023-04-29T02:08:52;17.80;;;13.53;;
6356;SDS011;3211;53.452;-2.264;2023-04-29T02:11:34;17.47;;;14.03;;
6356;SDS011;3211;53.452;-2.264;2023-04-29T02:14:17;15.80;;;13.20;;
6356;SDS011;3211;53.452;-2.264;2023-04-29T02:17:00;19.33;;;14.03;;
6356;SDS011;3211;53.452;-2.264;2023-04-29T02:19:42;17.47;;;13.70;;
6356;SDS011;3211;53.452;-2.264;2023-04-29T02:22:23;17.03;;;12.60;;
6356;SDS011;3211;53.452;-2.264;2023-04-29T02:25:06;17.83;;;13.27;;
6356;SDS011;3211;53.452;-2.264;2023-04-29T02:27:48;17.27;;;12.87;;
6356;SDS011;3211;53.452;-2.264;2023-04-29T02:30:32;19.30;;;13.20;;
6356;SDS011;3211;53.452;-2.264;2023-04-29T02:33:13;17.00;;;13.37;;
6356;SDS011;3211;53.452;-2.264;2023-04-29T02:35:56;16.77;;;13.23;;
6356;SDS011;3211;53.452;-2.264;2023-04-29T02:38:38;18.13;;;14.67;;
6356;SDS011;3211;53.452;-2.264;2023-04-29T02:41:21;18.23;;;12.43;;
6356;SDS011;3211;53.452;-2.264;2023-04-29T02:44:04;16.73;;;13.50;;
6356;SDS011;3211;53.452;-2.264;2023-04-29T02:46:48;17.30;;;13.13;;
6356;SDS011;3211;53.452;-2.264;2023-04-29T02:49:30;19.87;;;13.83;;
6356;SDS011;3211;53.452;-2.264;2023-04-29T02:52:11;17.87;;;12.73;;
6356;SDS011;3211;53.452;-2.264;2023-04-29T02:54:53;18.20;;;13.70;;
6356;SDS011;3211;53.452;-2.264;2023-04-29T02:57:35;17.40;;;13.77;;
6356;SDS011;3211;53.452;-2.264;2023-04-29T03:00:18;15.10;;;12.50;;
6356;SDS011;3211;53.452;-2.264;2023-04-29T03:03:02;19.23;;;13.47;;
6356;SDS011;3211;53.452;-2.264;2023-04-29T03:05:44;17.30;;;13.87;;
6356;SDS011;3211;53.452;-2.264;2023-04-29T03:08:26;17.47;;;13.70;;
6356;SDS011;3211;53.452;-2.264;2023-04-29T03:11:08;14.70;;;13.10;;
6356;SDS011;3211;53.452;-2.264;2023-04-29T03:13:50;16.80;;;13.53;;
6356;SDS011;3211;53.452;-2.264;2023-04-29T03:16:33;18.13;;;14.00;;
6356;SDS011;3211;53.452;-2.264;2023-04-29T03:19:16;19.57;;;13.50;;
6356;SDS011;3211;53.452;-2.264;2023-04-29T03:21:58;18.70;;;13.90;;
6356;SDS011;3211;53.452;-2.264;2023-04-29T03:24:40;17.57;;;13.40;;
6356;SDS011;3211;53.452;-2.264;2023-04-29T03:27:22;18.10;;;13.70;;
6356;SDS011;3211;53.452;-2.264;2023-04-29T03:30:05;20.80;;;15.00;;
6356;SDS011;3211;53.452;-2.264;2023-04-29T03:32:48;17.97;;;15.07;;
6356;SDS011;3211;53.452;-2.264;2023-04-29T03:35:31;19.60;;;14.20;;
6356;SDS011;3211;53.452;-2.264;2023-04-29T03:38:13;20.03;;;13.83;;
6356;SDS011;3211;53.452;-2.264;2023-04-29T03:40:55;18.80;;;14.70;;
6356;SDS011;3211;53.452;-2.264;2023-04-29T03:43:37;19.43;;;13.63;;
6356;SDS011;3211;53.452;-2.264;2023-04-29T03:46:19;16.93;;;14.33;;
6356;SDS011;3211;53.452;-2.264;2023-04-29T03:49:01;18.43;;;13.93;;
6356;SDS011;3211;53.452;-2.264;2023-04-29T03:51:44;17.67;;;14.73;;
6356;SDS011;3211;53.452;-2.264;2023-04-29T03:54:26;18.17;;;13.83;;
6356;SDS011;3211;53.452;-2.264;2023-04-29T03:57:08;15.67;;;12.47;;
6356;SDS011;3211;53.452;-2.264;2023-04-29T03:59:50;20.83;;;13.77;;
6356;SDS011;3211;53.452;-2.264;2023-04-29T04:02:32;16.53;;;14.20;;
6356;SDS011;3211;53.452;-2.264;2023-04-29T04:05:14;15.17;;;13.40;;
6356;SDS011;3211;53.452;-2.264;2023-04-29T04:08:00;16.30;;;13.87;;
6356;SDS011;3211;53.452;-2.264;2023-04-29T04:10:41;21.67;;;15.07;;
6356;SDS011;3211;53.452;-2.264;2023-04-29T04:13:23;19.73;;;15.17;;
6356;SDS011;3211;53.452;-2.264;2023-04-29T04:16:05;16.70;;;13.90;;
6356;SDS011;3211;53.452;-2.264;2023-04-29T04:18:48;19.00;;;14.37;;
6356;SDS011;3211;53.452;-2.264;2023-04-29T04:21:30;16.90;;;14.00;;
6356;SDS011;3211;53.452;-2.264;2023-04-29T04:24:13;21.53;;;14.40;;
6356;SDS011;3211;53.452;-2.264;2023-04-29T04:26:55;18.30;;;13.90;;
6356;SDS011;3211;53.452;-2.264;2023-04-29T04:29:37;19.47;;;14.17;;
6356;SDS011;3211;53.452;-2.264;2023-04-29T04:32:19;22.23;;;15.67;;
6356;SDS011;3211;53.452;-2.264;2023-04-29T04:35:01;19.37;;;14.40;;
6356;SDS011;3211;53.452;-2.264;2023-04-29T04:37:43;19.80;;;14.30;;
6356;SDS011;3211;53.452;-2.264;2023-04-29T04:40:26;19.27;;;14.57;;
6356;SDS011;3211;53.452;-2.264;2023-04-29T04:43:08;18.30;;;14.93;;
6356;SDS011;3211;53.452;-2.264;2023-04-29T04:45:51;21.57;;;15.23;;
6356;SDS011;3211;53.452;-2.264;2023-04-29T04:48:33;22.03;;;16.50;;
6356;SDS011;3211;53.452;-2.264;2023-04-29T04:51:15;23.77;;;16.23;;
6356;SDS011;3211;53.452;-2.264;2023-04-29T04:53:57;21.83;;;17.10;;
6356;SDS011;3211;53.452;-2.264;2023-04-29T04:56:40;19.33;;;15.90;;
6356;SDS011;3211;53.452;-2.264;2023-04-29T04:59:22;22.30;;;16.30;;
6356;SDS011;3211;53.452;-2.264;2023-04-29T05:02:04;20.93;;;16.50;;
6356;SDS011;3211;53.452;-2.264;2023-04-29T05:04:47;24.80;;;16.93;;
6356;SDS011;3211;53.452;-2.264;2023-04-29T05:07:29;26.10;;;17.37;;
6356;SDS011;3211;53.452;-2.264;2023-04-29T05:10:11;22.20;;;18.00;;
6356;SDS011;3211;53.452;-2.264;2023-04-29T05:12:55;22.77;;;17.27;;
6356;SDS011;3211;53.452;-2.264;2023-04-29T05:15:37;22.30;;;16.70;;
6356;SDS011;3211;53.452;-2.264;2023-04-29T05:18:19;24.00;;;18.20;;
6356;SDS011;3211;53.452;-2.264;2023-04-29T05:21:01;24.10;;;18.63;;
6356;SDS011;3211;53.452;-2.264;2023-04-29T05:23:43;23.50;;;17.83;;
6356;SDS011;3211;53.452;-2.264;2023-04-29T05:26:25;27.80;;;19.10;;
6356;SDS011;3211;53.452;-2.264;2023-04-29T05:29:08;25.23;;;19.30;;
6356;SDS011;3211;53.452;-2.264;2023-04-29T05:31:51;25.00;;;20.03;;
6356;SDS011;3211;53.452;-2.264;2023-04-29T05:34:33;25.30;;;18.47;;
6356;SDS011;3211;53.452;-2.264;2023-04-29T05:37:15;30.83;;;20.20;;
6356;SDS011;3211;53.452;-2.264;2023-04-29T05:39:57;25.40;;;19.23;;
6356;SDS011;3211;53.452;-2.264;2023-04-29T05:42:39;23.27;;;17.87;;
6356;SDS011;3211;53.452;-2.264;2023-04-29T05:45:22;24.63;;;18.60;;
6356;SDS011;3211;53.452;-2.264;2023-04-29T05:48:04;28.77;;;18.50;;
6356;SDS011;3211;53.452;-2.264;2023-04-29T05:50:46;24.83;;;18.77;;
6356;SDS011;3211;53.452;-2.264;2023-04-29T05:53:28;27.30;;;18.33;;
6356;SDS011;3211;53.452;-2.264;2023-04-29T05:56:10;24.63;;;19.70;;
6356;SDS011;3211;53.452;-2.264;2023-04-29T05:58:52;27.03;;;18.17;;
6356;SDS011;3211;53.452;-2.264;2023-04-29T06:01:36;24.50;;;18.77;;
6356;SDS011;3211;53.452;-2.264;2023-04-29T06:04:18;24.97;;;18.70;;
6356;SDS011;3211;53.452;-2.264;2023-04-29T06:07:00;25.10;;;18.60;;
6356;SDS011;3211;53.452;-2.264;2023-04-29T06:09:43;27.43;;;18.67;;
6356;SDS011;3211;53.452;-2.264;2023-04-29T06:12:26;28.57;;;19.70;;
6356;SDS011;3211;53.452;-2.264;2023-04-29T06:15:08;26.10;;;20.50;;
6356;SDS011;3211;53.452;-2.264;2023-04-29T06:17:52;29.07;;;20.00;;
6356;SDS011;3211;53.452;-2.264;2023-04-29T06:20:34;30.80;;;21.00;;
6356;SDS011;3211;53.452;-2.264;2023-04-29T06:23:16;26.07;;;19.50;;
6356;SDS011;3211;53.452;-2.264;2023-04-29T06:25:58;24.47;;;19.47;;
6356;SDS011;3211;53.452;-2.264;2023-04-29T06:28:40;25.53;;;19.70;;
6356;SDS011;3211;53.452;-2.264;2023-04-29T06:31:22;30.70;;;20.03;;
6356;SDS011;3211;53.452;-2.264;2023-04-29T06:34:05;28.50;;;19.73;;
6356;SDS011;3211;53.452;-2.264;2023-04-29T06:36:47;27.27;;;20.10;;
6356;SDS011;3211;53.452;-2.264;2023-04-29T06:39:29;28.83;;;20.67;;
6356;SDS011;3211;53.452;-2.264;2023-04-29T06:42:12;26.73;;;20.37;;
6356;SDS011;3211;53.452;-2.264;2023-04-29T06:44:54;26.90;;;20.70;;
6356;SDS011;3211;53.452;-2.264;2023-04-29T06:47:36;30.77;;;20.50;;
6356;SDS011;3211;53.452;-2.264;2023-04-29T06:50:19;28.93;;;21.20;;
6356;SDS011;3211;53.452;-2.264;2023-04-29T06:53:01;25.97;;;19.10;;
6356;SDS011;3211;53.452;-2.264;2023-04-29T06:55:43;29.27;;;21.87;;
6356;SDS011;3211;53.452;-2.264;2023-04-29T06:58:26;29.20;;;18.77;;
6356;SDS011;3211;53.452;-2.264;2023-04-29T07:01:08;32.80;;;19.83;;
6356;SDS011;3211;53.452;-2.264;2023-04-29T07:03:50;28.07;;;20.07;;
6356;SDS011;3211;53.452;-2.264;2023-04-29T07:06:33;29.67;;;20.10;;
6356;SDS011;3211;53.452;-2.264;2023-04-29T07:09:16;28.50;;;21.00;;
6356;SDS011;3211;53.452;-2.264;2023-04-29T07:11:57;31.73;;;20.40;;
6356;SDS011;3211;53.452;-2.264;2023-04-29T07:14:41;25.50;;;19.10;;
6356;SDS011;3211;53.452;-2.264;2023-04-29T07:17:23;27.40;;;20.97;;
6356;SDS011;3211;53.452;-2.264;2023-04-29T07:20:06;28.10;;;21.50;;
6356;SDS011;3211;53.452;-2.264;2023-04-29T07:22:50;27.63;;;20.13;;
6356;SDS011;3211;53.452;-2.264;2023-04-29T07:25:32;28.53;;;21.53;;
6356;SDS011;3211;53.452;-2.264;2023-04-29T07:28:13;27.47;;;19.80;;
6356;SDS011;3211;53.452;-2.264;2023-04-29T07:30:56;30.87;;;20.77;;
6356;SDS011;3211;53.452;-2.264;2023-04-29T07:33:38;28.77;;;21.10;;
6356;SDS011;3211;53.452;-2.264;2023-04-29T07:36:20;24.67;;;19.40;;
6356;SDS011;3211;53.452;-2.264;2023-04-29T07:39:03;29.97;;;20.50;;
6356;SDS011;3211;53.452;-2.264;2023-04-29T07:41:45;25.77;;;20.53;;
6356;SDS011;3211;53.452;-2.264;2023-04-29T07:44:27;28.90;;;20.87;;
6356;SDS011;3211;53.452;-2.264;2023-04-29T07:47:09;28.13;;;20.13;;
6356;SDS011;3211;53.452;-2.264;2023-04-29T07:49:51;29.53;;;19.43;;
6356;SDS011;3211;53.452;-2.264;2023-04-29T07:52:33;28.00;;;21.13;;
6356;SDS011;3211;53.452;-2.264;2023-04-29T07:55:16;27.80;;;20.27;;
6356;SDS011;3211;53.452;-2.264;2023-04-29T07:57:58;28.70;;;20.50;;
6356;SDS011;3211;53.452;-2.264;2023-04-29T08:00:40;28.83;;;19.97;;
6356;SDS011;3211;53.452;-2.264;2023-04-29T08:03:22;23.53;;;18.63;;
6356;SDS011;3211;53.452;-2.264;2023-04-29T08:06:05;21.40;;;17.00;;
6356;SDS011;3211;53.452;-2.264;2023-04-29T08:08:47;24.80;;;18.73;;
6356;SDS011;3211;53.452;-2.264;2023-04-29T08:11:30;27.17;;;18.17;;
6356;SDS011;3211;53.452;-2.264;2023-04-29T08:14:12;24.30;;;18.40;;
6356;SDS011;3211;53.452;-2.264;2023-04-29T08:16:54;24.67;;;17.97;;
6356;SDS011;3211;53.452;-2.264;2023-04-29T08:19:36;18.93;;;14.77;;
6356;SDS011;3211;53.452;-2.264;2023-04-29T08:22:18;27.73;;;15.60;;
6356;SDS011;3211;53.452;-2.264;2023-04-29T08:25:00;21.87;;;14.73;;
6356;SDS011;3211;53.452;-2.264;2023-04-29T08:27:45;20.37;;;14.43;;
6356;SDS011;3211;53.452;-2.264;2023-04-29T08:30:27;19.23;;;14.93;;
6356;SDS011;3211;53.452;-2.264;2023-04-29T08:33:09;15.87;;;13.03;;
6356;SDS011;3211;53.452;-2.264;2023-04-29T08:35:56;19.07;;;12.30;;
6356;SDS011;3211;53.452;-2.264;2023-04-29T08:38:39;19.90;;;14.70;;
6356;SDS011;3211;53.452;-2.264;2023-04-29T08:41:21;17.30;;;12.50;;
6356;SDS011;3211;53.452;-2.264;2023-04-29T08:44:06;15.03;;;12.17;;
6356;SDS011;3211;53.452;-2.264;2023-04-29T08:46:48;15.37;;;12.57;;
6356;SDS011;3211;53.452;-2.264;2023-04-29T08:49:31;13.70;;;11.40;;
6356;SDS011;3211;53.452;-2.264;2023-04-29T08:52:13;15.80;;;10.97;;
6356;SDS011;3211;53.452;-2.264;2023-04-29T08:54:55;16.10;;;12.80;;
6356;SDS011;3211;53.452;-2.264;2023-04-29T08:57:37;20.20;;;14.93;;
6356;SDS011;3211;53.452;-2.264;2023-04-29T09:00:22;17.43;;;13.50;;
6356;SDS011;3211;53.452;-2.264;2023-04-29T09:03:09;17.83;;;14.90;;
6356;SDS011;3211;53.452;-2.264;2023-04-29T09:05:55;17.40;;;14.17;;
6356;SDS011;3211;53.452;-2.264;2023-04-29T09:08:40;16.97;;;14.47;;
6356;SDS011;3211;53.452;-2.264;2023-04-29T09:11:22;17.47;;;13.80;;
6356;SDS011;3211;53.452;-2.264;2023-04-29T09:14:05;17.70;;;13.60;;
6356;SDS011;3211;53.452;-2.264;2023-04-29T09:16:49;19.60;;;13.60;;
6356;SDS011;3211;53.452;-2.264;2023-04-29T09:19:32;19.00;;;14.40;;
6356;SDS011;3211;53.452;-2.264;2023-04-29T09:22:15;18.00;;;14.53;;
6356;SDS011;3211;53.452;-2.264;2023-04-29T09:25:10;17.80;;;14.23;;
6356;SDS011;3211;53.452;-2.264;2023-04-29T09:27:52;17.60;;;13.87;;
6356;SDS011;3211;53.452;-2.264;2023-04-29T09:30:44;18.90;;;13.37;;
6356;SDS011;3211;53.452;-2.264;2023-04-29T09:33:28;18.03;;;12.90;;
6356;SDS011;3211;53.452;-2.264;2023-04-29T09:36:10;19.77;;;13.40;;
6356;SDS011;3211;53.452;-2.264;2023-04-29T09:38:52;17.30;;;13.83;;
6356;SDS011;3211;53.452;-2.264;2023-04-29T09:41:36;15.77;;;13.30;;
6356;SDS011;3211;53.452;-2.264;2023-04-29T09:44:33;16.90;;;14.07;;
6356;SDS011;3211;53.452;-2.264;2023-04-29T09:47:16;17.20;;;13.90;;
6356;SDS011;3211;53.452;-2.264;2023-04-29T09:50:10;19.27;;;12.43;;
6356;SDS011;3211;53.452;-2.264;2023-04-29T09:52:55;20.77;;;13.23;;
6356;SDS011;3211;53.452;-2.264;2023-04-29T09:55:56;15.27;;;12.80;;
6356;SDS011;3211;53.452;-2.264;2023-04-29T09:58:39;17.13;;;12.40;;
6356;SDS011;3211;53.452;-2.264;2023-04-29T10:01:21;20.50;;;13.87;;
6356;SDS011;3211;53.452;-2.264;2023-04-29T10:04:05;16.47;;;13.43;;
6356;SDS011;3211;53.452;-2.264;2023-04-29T10:06:52;16.40;;;12.67;;
6356;SDS011;3211;53.452;-2.264;2023-04-29T10:09:35;17.33;;;13.07;;
6356;SDS011;3211;53.452;-2.264;2023-04-29T10:12:20;16.40;;;13.53;;
6356;SDS011;3211;53.452;-2.264;2023-04-29T10:15:03;15.47;;;12.23;;
6356;SDS011;3211;53.452;-2.264;2023-04-29T10:17:51;15.13;;;12.40;;
6356;SDS011;3211;53.452;-2.264;2023-04-29T10:20:38;13.27;;;11.20;;
6356;SDS011;3211;53.452;-2.264;2023-04-29T10:23:27;14.07;;;11.13;;
6356;SDS011;3211;53.452;-2.264;2023-04-29T10:26:11;13.33;;;10.27;;
6356;SDS011;3211;53.452;-2.264;2023-04-29T10:28:54;10.30;;;9.00;;
6356;SDS011;3211;53.452;-2.264;2023-04-29T10:31:36;10.70;;;9.60;;
6356;SDS011;3211;53.452;-2.264;2023-04-29T10:34:21;15.00;;;9.97;;
6356;SDS011;3211;53.452;-2.264;2023-04-29T10:37:04;12.47;;;9.97;;
6356;SDS011;3211;53.452;-2.264;2023-04-29T10:39:51;9.47;;;6.40;;
6356;SDS011;3211;53.452;-2.264;2023-04-29T10:42:44;8.47;;;7.20;;
6356;SDS011;3211;53.452;-2.264;2023-04-29T10:45:27;7.63;;;6.57;;
6356;SDS011;3211;53.452;-2.264;2023-04-29T10:48:11;10.10;;;7.73;;
6356;SDS011;3211;53.452;-2.264;2023-04-29T10:51:00;11.40;;;8.63;;
6356;SDS011;3211;53.452;-2.264;2023-04-29T10:56:43;8.70;;;7.53;;
6356;SDS011;3211;53.452;-2.264;2023-04-29T10:59:43;9.57;;;7.50;;
6356;SDS011;3211;53.452;-2.264;2023-04-29T11:02:27;9.00;;;6.77;;
6356;SDS011;3211;53.452;-2.264;2023-04-29T11:05:09;5.70;;;4.77;;
6356;SDS011;3211;53.452;-2.264;2023-04-29T11:08:07;5.87;;;5.23;;
6356;SDS011;3211;53.452;-2.264;2023-04-29T11:10:51;6.67;;;5.57;;
6356;SDS011;3211;53.452;-2.264;2023-04-29T11:13:36;9.13;;;5.80;;
6356;SDS011;3211;53.452;-2.264;2023-04-29T11:16:21;7.50;;;6.13;;
6356;SDS011;3211;53.452;-2.264;2023-04-29T11:19:08;8.93;;;8.00;;
6356;SDS011;3211;53.452;-2.264;2023-04-29T11:22:02;7.90;;;7.10;;
6356;SDS011;3211;53.452;-2.264;2023-04-29T11:24:50;8.40;;;7.13;;
6356;SDS011;3211;53.452;-2.264;2023-04-29T11:27:34;6.93;;;5.77;;
6356;SDS011;3211;53.452;-2.264;2023-04-29T11:30:18;5.80;;;5.20;;
6356;SDS011;3211;53.452;-2.264;2023-04-29T11:33:01;5.87;;;5.27;;
6356;SDS011;3211;53.452;-2.264;2023-04-29T11:35:43;6.07;;;5.53;;
6356;SDS011;3211;53.452;-2.264;2023-04-29T11:38:24;7.23;;;6.37;;
6356;SDS011;3211;53.452;-2.264;2023-04-29T11:41:07;6.40;;;5.80;;
6356;SDS011;3211;53.452;-2.264;2023-04-29T11:43:53;7.67;;;6.17;;
6356;SDS011;3211;53.452;-2.264;2023-04-29T11:46:38;6.63;;;5.87;;
6356;SDS011;3211;53.452;-2.264;2023-04-29T11:49:20;6.17;;;5.00;;
6356;SDS011;3211;53.452;-2.264;2023-04-29T11:52:07;6.30;;;5.70;;
6356;SDS011;3211;53.452;-2.264;2023-04-29T11:54:50;7.10;;;5.33;;
6356;SDS011;3211;53.452;-2.264;2023-04-29T11:57:32;6.33;;;5.73;;
6356;SDS011;3211;53.452;-2.264;2023-04-29T12:00:14;6.00;;;5.20;;
6356;SDS011;3211;53.452;-2.264;2023-04-29T12:02:57;6.03;;;5.17;;
6356;SDS011;3211;53.452;-2.264;2023-04-29T12:05:44;6.67;;;4.73;;
6356;SDS011;3211;53.452;-2.264;2023-04-29T12:08:27;4.67;;;4.17;;
6356;SDS011;3211;53.452;-2.264;2023-04-29T12:11:12;4.70;;;4.30;;
6356;SDS011;3211;53.452;-2.264;2023-04-29T12:13:54;5.40;;;3.93;;
6356;SDS011;3211;53.452;-2.264;2023-04-29T12:16:37;4.40;;;3.47;;
6356;SDS011;3211;53.452;-2.264;2023-04-29T12:19:20;5.07;;;3.13;;
6356;SDS011;3211;53.452;-2.264;2023-04-29T12:22:03;5.20;;;4.20;;
6356;SDS011;3211;53.452;-2.264;2023-04-29T12:24:45;4.30;;;3.90;;
6356;SDS011;3211;53.452;-2.264;2023-04-29T12:27:29;3.33;;;3.03;;
6356;SDS011;3211;53.452;-2.264;2023-04-29T12:30:13;3.63;;;3.33;;
6356;SDS011;3211;53.452;-2.264;2023-04-29T12:32:55;3.73;;;3.43;;
6356;SDS011;3211;53.452;-2.264;2023-04-29T12:35:38;3.97;;;3.67;;
6356;SDS011;3211;53.452;-2.264;2023-04-29T12:38:20;4.03;;;3.63;;
6356;SDS011;3211;53.452;-2.264;2023-04-29T12:41:03;4.20;;;3.80;;
6356;SDS011;3211;53.452;-2.264;2023-04-29T12:43:47;3.60;;;3.30;;
6356;SDS011;3211;53.452;-2.264;2023-04-29T12:46:33;11.53;;;3.90;;
6356;SDS011;3211;53.452;-2.264;2023-04-29T12:49:16;5.77;;;4.00;;
6356;SDS011;3211;53.452;-2.264;2023-04-29T12:52:00;3.80;;;3.50;;
6356;SDS011;3211;53.452;-2.264;2023-04-29T12:54:43;3.37;;;3.10;;
6356;SDS011;3211;53.452;-2.264;2023-04-29T12:57:26;4.07;;;3.40;;
6356;SDS011;3211;53.452;-2.264;2023-04-29T13:00:09;4.00;;;3.70;;
6356;SDS011;3211;53.452;-2.264;2023-04-29T13:02:52;3.87;;;3.57;;
6356;SDS011;3211;53.452;-2.264;2023-04-29T13:05:34;3.67;;;3.37;;
6356;SDS011;3211;53.452;-2.264;2023-04-29T13:08:17;4.50;;;3.90;;
6356;SDS011;3211;53.452;-2.264;2023-04-29T13:11:00;3.83;;;3.53;;
6356;SDS011;3211;53.452;-2.264;2023-04-29T13:13:42;3.40;;;3.10;;
6356;SDS011;3211;53.452;-2.264;2023-04-29T13:16:24;4.33;;;3.93;;
6356;SDS011;3211;53.452;-2.264;2023-04-29T13:19:06;4.77;;;4.03;;
6356;SDS011;3211;53.452;-2.264;2023-04-29T13:21:48;3.53;;;3.23;;
6356;SDS011;3211;53.452;-2.264;2023-04-29T13:24:31;3.17;;;2.83;;
6356;SDS011;3211;53.452;-2.264;2023-04-29T13:27:14;3.43;;;3.13;;
6356;SDS011;3211;53.452;-2.264;2023-04-29T13:29:57;3.13;;;2.93;;
6356;SDS011;3211;53.452;-2.264;2023-04-29T13:32:39;3.10;;;2.90;;
6356;SDS011;3211;53.452;-2.264;2023-04-29T13:35:21;4.27;;;3.37;;
6356;SDS011;3211;53.452;-2.264;2023-04-29T13:38:03;3.30;;;3.00;;
6356;SDS011;3211;53.452;-2.264;2023-04-29T13:40:46;2.73;;;2.53;;
6356;SDS011;3211;53.452;-2.264;2023-04-29T13:43:28;3.23;;;2.63;;
6356;SDS011;3211;53.452;-2.264;2023-04-29T13:46:10;3.13;;;2.83;;
6356;SDS011;3211;53.452;-2.264;2023-04-29T13:48:52;3.30;;;3.00;;
6356;SDS011;3211;53.452;-2.264;2023-04-29T13:51:34;3.03;;;2.53;;
6356;SDS011;3211;53.452;-2.264;2023-04-29T13:54:16;2.40;;;2.20;;
6356;SDS011;3211;53.452;-2.264;2023-04-29T13:57:01;2.87;;;2.67;;
6356;SDS011;3211;53.452;-2.264;2023-04-29T13:59:44;2.60;;;2.40;;
6356;SDS011;3211;53.452;-2.264;2023-04-29T14:02:26;2.50;;;2.30;;
6356;SDS011;3211;53.452;-2.264;2023-04-29T14:05:08;2.83;;;2.63;;
6356;SDS011;3211;53.452;-2.264;2023-04-29T14:07:50;2.80;;;2.30;;
6356;SDS011;3211;53.452;-2.264;2023-04-29T14:10:32;3.47;;;3.17;;
6356;SDS011;3211;53.452;-2.264;2023-04-29T14:13:15;2.10;;;1.90;;
6356;SDS011;3211;53.452;-2.264;2023-04-29T14:15:57;2.27;;;1.87;;
6356;SDS011;3211;53.452;-2.264;2023-04-29T14:18:42;1.80;;;1.70;;
6356;SDS011;3211;53.452;-2.264;2023-04-29T14:21:24;1.80;;;1.70;;
6356;SDS011;3211;53.452;-2.264;2023-04-29T14:24:07;2.23;;;2.03;;
6356;SDS011;3211;53.452;-2.264;2023-04-29T14:26:49;1.70;;;1.60;;
6356;SDS011;3211;53.452;-2.264;2023-04-29T14:29:33;2.70;;;1.80;;
6356;SDS011;3211;53.452;-2.264;2023-04-29T14:32:15;2.20;;;2.00;;
6356;SDS011;3211;53.452;-2.264;2023-04-29T14:34:57;1.90;;;1.70;;
6356;SDS011;3211;53.452;-2.264;2023-04-29T14:37:39;1.90;;;1.80;;
6356;SDS011;3211;53.452;-2.264;2023-04-29T14:40:21;2.50;;;2.30;;
6356;SDS011;3211;53.452;-2.264;2023-04-29T14:43:04;2.47;;;2.17;;
6356;SDS011;3211;53.452;-2.264;2023-04-29T14:45:47;1.83;;;1.73;;
6356;SDS011;3211;53.452;-2.264;2023-04-29T14:48:29;1.90;;;1.80;;
6356;SDS011;3211;53.452;-2.264;2023-04-29T14:51:12;2.00;;;1.90;;
6356;SDS011;3211;53.452;-2.264;2023-04-29T14:53:54;1.97;;;1.70;;
6356;SDS011;3211;53.452;-2.264;2023-04-29T14:56:36;1.90;;;1.70;;
6356;SDS011;3211;53.452;-2.264;2023-04-29T14:59:18;1.70;;;1.60;;
6356;SDS011;3211;53.452;-2.264;2023-04-29T15:02:01;1.63;;;1.50;;
6356;SDS011;3211;53.452;-2.264;2023-04-29T15:04:43;2.07;;;1.90;;
6356;SDS011;3211;53.452;-2.264;2023-04-29T15:07:26;3.13;;;2.20;;
6356;SDS011;3211;53.452;-2.264;2023-04-29T15:10:08;2.87;;;2.60;;
6356;SDS011;3211;53.452;-2.264;2023-04-29T15:12:50;3.87;;;2.57;;
6356;SDS011;3211;53.452;-2.264;2023-04-29T15:15:32;2.70;;;2.50;;
6356;SDS011;3211;53.452;-2.264;2023-04-29T15:18:16;2.70;;;2.50;;
6356;SDS011;3211;53.452;-2.264;2023-04-29T15:20:58;2.60;;;2.40;;
6356;SDS011;3211;53.452;-2.264;2023-04-29T15:23:40;2.90;;;2.70;;
6356;SDS011;3211;53.452;-2.264;2023-04-29T15:26:22;2.70;;;2.50;;
6356;SDS011;3211;53.452;-2.264;2023-04-29T15:29:04;3.00;;;2.70;;
6356;SDS011;3211;53.452;-2.264;2023-04-29T15:31:46;2.83;;;2.63;;
6356;SDS011;3211;53.452;-2.264;2023-04-29T15:34:29;7.60;;;6.90;;
6356;SDS011;3211;53.452;-2.264;2023-04-29T15:37:11;12.63;;;9.03;;
6356;SDS011;3211;53.452;-2.264;2023-04-29T15:39:54;12.40;;;8.40;;
6356;SDS011;3211;53.452;-2.264;2023-04-29T15:42:36;8.67;;;7.87;;
6356;SDS011;3211;53.452;-2.264;2023-04-29T15:45:18;8.47;;;7.57;;
6356;SDS011;3211;53.452;-2.264;2023-04-29T15:48:00;10.67;;;7.93;;
6356;SDS011;3211;53.452;-2.264;2023-04-29T15:50:43;11.10;;;8.77;;
6356;SDS011;3211;53.452;-2.264;2023-04-29T15:53:25;8.27;;;7.47;;
6356;SDS011;3211;53.452;-2.264;2023-04-29T15:56:07;10.07;;;8.80;;
6356;SDS011;3211;53.452;-2.264;2023-04-29T15:58:50;7.40;;;6.70;;
6356;SDS011;3211;53.452;-2.264;2023-04-29T16:01:32;7.30;;;5.53;;
6356;SDS011;3211;53.452;-2.264;2023-04-29T16:04:18;6.00;;;5.07;;
6356;SDS011;3211;53.452;-2.264;2023-04-29T16:07:02;8.87;;;5.60;;
6356;SDS011;3211;53.452;-2.264;2023-04-29T16:09:44;9.80;;;5.77;;
6356;SDS011;3211;53.452;-2.264;2023-04-29T16:12:26;7.77;;;6.77;;
6356;SDS011;3211;53.452;-2.264;2023-04-29T16:15:08;8.40;;;6.60;;
6356;SDS011;3211;53.452;-2.264;2023-04-29T16:17:51;7.60;;;6.80;;
6356;SDS011;3211;53.452;-2.264;2023-04-29T16:20:33;6.23;;;5.70;;
6356;SDS011;3211;53.452;-2.264;2023-04-29T16:23:16;6.57;;;5.97;;